sensor_id;sensor_type;location;lat;lon;timestamp;pressure;altitude;pressure_sealevel;temperature;humidity
79250;BME280;68679;51.030;7.584;2023-08-30T00:02:06;98307.94;;;13.88;66.11
79250;BME280;68679;51.030;7.584;2023-08-30T00:04:34;98302.41;;;13.89;66.44
79250;BME280;68679;51.030;7.584;2023-08-30T00:06:59;98307.50;;;13.86;66.38
79250;BME280;68679;51.030;7.584;2023-08-30T00:09:24;98304.53;;;13.87;66.16
79250;BME280;68679;51.030;7.584;2023-08-30T00:11:50;98303.44;;;13.88;66.28
79250;BME280;68679;51.030;7.584;2023-08-30T00:14:15;98300.38;;;13.86;66.17
79250;BME280;68679;51.030;7.584;2023-08-30T00:16:41;98304.22;;;13.89;66.61
79250;BME280;68679;51.030;7.584;2023-08-30T00:19:06;98305.63;;;13.86;66.48
79250;BME280;68679;51.030;7.584;2023-08-30T00:21:31;98299.91;;;13.84;66.46
79250;BME280;68679;51.030;7.584;2023-08-30T00:23:56;98301.78;;;13.84;66.80
79250;BME280;68679;51.030;7.584;2023-08-30T00:26:22;98303.63;;;13.83;66.88
79250;BME280;68679;51.030;7.584;2023-08-30T00:28:47;98303.91;;;13.82;66.26
79250;BME280;68679;51.030;7.584;2023-08-30T00:31:12;98303.31;;;13.85;66.35
79250;BME280;68679;51.030;7.584;2023-08-30T00:33:38;98308.59;;;13.85;66.48
79250;BME280;68679;51.030;7.584;2023-08-30T00:36:03;98302.81;;;13.83;66.76
79250;BME280;68679;51.030;7.584;2023-08-30T00:38:29;98305.47;;;13.83;66.90
79250;BME280;68679;51.030;7.584;2023-08-30T00:40:54;98300.19;;;13.83;66.77
79250;BME280;68679;51.030;7.584;2023-08-30T00:43:20;98301.00;;;13.83;66.75
79250;BME280;68679;51.030;7.584;2023-08-30T00:45:47;98299.91;;;13.84;67.22
79250;BME280;68679;51.030;7.584;2023-08-30T00:48:13;98297.56;;;13.83;66.97
79250;BME280;68679;51.030;7.584;2023-08-30T00:50:39;98300.50;;;13.81;66.72
79250;BME280;68679;51.030;7.584;2023-08-30T00:53:05;98296.78;;;13.82;66.60
79250;BME280;68679;51.030;7.584;2023-08-30T00:55:33;98303.16;;;13.81;67.04
79250;BME280;68679;51.030;7.584;2023-08-30T00:57:59;98285.78;;;13.80;67.19
79250;BME280;68679;51.030;7.584;2023-08-30T01:00:25;98284.69;;;13.81;67.08
79250;BME280;68679;51.030;7.584;2023-08-30T01:02:52;98278.97;;;13.79;67.18
79250;BME280;68679;51.030;7.584;2023-08-30T01:05:17;98278.19;;;13.79;67.11
79250;BME280;68679;51.030;7.584;2023-08-30T01:07:42;98275.25;;;13.80;67.32
79250;BME280;68679;51.030;7.584;2023-08-30T01:10:08;98278.19;;;13.79;67.15
79250;BME280;68679;51.030;7.584;2023-08-30T01:12:40;98278.19;;;13.79;66.83
79250;BME280;68679;51.030;7.584;2023-08-30T01:15:10;98278.03;;;13.75;67.32
79250;BME280;68679;51.030;7.584;2023-08-30T01:17:39;98269.81;;;13.77;66.69
79250;BME280;68679;51.030;7.584;2023-08-30T01:20:07;98268.28;;;13.76;67.05
79250;BME280;68679;51.030;7.584;2023-08-30T01:22:57;98262.22;;;13.75;66.82
79250;BME280;68679;51.030;7.584;2023-08-30T01:25:32;98264.09;;;13.75;67.04
79250;BME280;68679;51.030;7.584;2023-08-30T01:28:04;98270.75;;;13.72;67.12
79250;BME280;68679;51.030;7.584;2023-08-30T01:30:32;98271.53;;;13.73;66.80
79250;BME280;68679;51.030;7.584;2023-08-30T01:33:00;98268.41;;;13.71;66.95
79250;BME280;68679;51.030;7.584;2023-08-30T01:35:26;98268.72;;;13.69;66.95
79250;BME280;68679;51.030;7.584;2023-08-30T01:37:58;98272.78;;;13.66;67.02
79250;BME280;68679;51.030;7.584;2023-08-30T01:40:26;98267.78;;;13.65;67.50
79250;BME280;68679;51.030;7.584;2023-08-30T01:42:53;98266.25;;;13.64;67.12
79250;BME280;68679;51.030;7.584;2023-08-30T01:45:20;98268.44;;;13.62;67.09
79250;BME280;68679;51.030;7.584;2023-08-30T01:47:47;98261.13;;;13.59;66.92
79250;BME280;68679;51.030;7.584;2023-08-30T01:50:14;98261.44;;;13.57;66.94
79250;BME280;68679;51.030;7.584;2023-08-30T01:52:41;98256.81;;;13.54;66.87
79250;BME280;68679;51.030;7.584;2023-08-30T01:55:08;98260.03;;;13.51;67.03
79250;BME280;68679;51.030;7.584;2023-08-30T01:57:34;98250.91;;;13.49;67.27
79250;BME280;68679;51.030;7.584;2023-08-30T01:59:59;98247.03;;;13.46;66.92
79250;BME280;68679;51.030;7.584;2023-08-30T02:02:28;98252.91;;;13.43;66.91
79250;BME280;68679;51.030;7.584;2023-08-30T02:04:53;98248.13;;;13.36;67.42
79250;BME280;68679;51.030;7.584;2023-08-30T02:10:02;98249.50;;;13.34;66.57
79250;BME280;68679;51.030;7.584;2023-08-30T02:12:31;98251.97;;;13.30;66.79
79250;BME280;68679;51.030;7.584;2023-08-30T02:14:59;98254.13;;;13.28;66.38
79250;BME280;68679;51.030;7.584;2023-08-30T02:17:27;98247.94;;;13.24;66.77
79250;BME280;68679;51.030;7.584;2023-08-30T02:19:52;98251.16;;;13.21;66.90
79250;BME280;68679;51.030;7.584;2023-08-30T02:22:19;98250.69;;;13.19;66.75
79250;BME280;68679;51.030;7.584;2023-08-30T02:24:44;98251.28;;;13.16;66.67
79250;BME280;68679;51.030;7.584;2023-08-30T02:27:09;98245.09;;;13.12;66.81
79250;BME280;68679;51.030;7.584;2023-08-30T02:29:34;98250.97;;;13.09;66.30
79250;BME280;68679;51.030;7.584;2023-08-30T02:32:00;98244.16;;;13.08;66.17
79250;BME280;68679;51.030;7.584;2023-08-30T02:34:25;98244.78;;;13.05;66.29
79250;BME280;68679;51.030;7.584;2023-08-30T02:36:50;98242.44;;;13.03;66.47
79250;BME280;68679;51.030;7.584;2023-08-30T02:39:16;98244.59;;;13.01;66.70
79250;BME280;68679;51.030;7.584;2023-08-30T02:41:41;98243.84;;;13.01;66.62
79250;BME280;68679;51.030;7.584;2023-08-30T02:44:11;98243.38;;;12.99;66.76
79250;BME280;68679;51.030;7.584;2023-08-30T02:46:36;98242.88;;;12.97;66.95
79250;BME280;68679;51.030;7.584;2023-08-30T02:49:03;98235.75;;;12.97;66.78
79250;BME280;68679;51.030;7.584;2023-08-30T02:51:28;98237.94;;;12.95;66.88
79250;BME280;68679;51.030;7.584;2023-08-30T02:53:53;98237.63;;;12.97;66.64
79250;BME280;68679;51.030;7.584;2023-08-30T02:56:18;98231.44;;;12.93;66.95
79250;BME280;68679;51.030;7.584;2023-08-30T02:58:44;98231.72;;;12.91;66.37
79250;BME280;68679;51.030;7.584;2023-08-30T03:01:09;98228.31;;;12.91;66.66
79250;BME280;68679;51.030;7.584;2023-08-30T03:03:34;98225.69;;;12.91;66.83
79250;BME280;68679;51.030;7.584;2023-08-30T03:06:01;98221.81;;;12.88;66.09
79250;BME280;68679;51.030;7.584;2023-08-30T03:08:28;98222.13;;;12.86;66.44
79250;BME280;68679;51.030;7.584;2023-08-30T03:10:53;98221.63;;;12.84;66.47
79250;BME280;68679;51.030;7.584;2023-08-30T03:13:18;98217.16;;;12.85;66.67
79250;BME280;68679;51.030;7.584;2023-08-30T03:15:43;98215.91;;;12.82;66.87
79250;BME280;68679;51.030;7.584;2023-08-30T03:18:09;98206.16;;;12.83;66.55
79250;BME280;68679;51.030;7.584;2023-08-30T03:20:34;98212.97;;;12.84;66.99
79250;BME280;68679;51.030;7.584;2023-08-30T03:22:59;98221.94;;;12.83;67.02
79250;BME280;68679;51.030;7.584;2023-08-30T03:25:27;98220.41;;;12.82;66.79
79250;BME280;68679;51.030;7.584;2023-08-30T03:27:53;98224.91;;;12.81;66.95
79250;BME280;68679;51.030;7.584;2023-08-30T03:30:19;98221.94;;;12.83;66.93
79250;BME280;68679;51.030;7.584;2023-08-30T03:32:44;98225.66;;;12.82;67.35
79250;BME280;68679;51.030;7.584;2023-08-30T03:35:09;98220.09;;;12.83;67.05
79250;BME280;68679;51.030;7.584;2023-08-30T03:37:35;98215.47;;;12.80;67.03
79250;BME280;68679;51.030;7.584;2023-08-30T03:40:00;98220.72;;;12.80;67.46
79250;BME280;68679;51.030;7.584;2023-08-30T03:42:25;98224.13;;;12.81;67.48
79250;BME280;68679;51.030;7.584;2023-08-30T03:44:51;98215.91;;;12.82;67.18
79250;BME280;68679;51.030;7.584;2023-08-30T03:47:16;98222.72;;;12.83;67.48
79250;BME280;68679;51.030;7.584;2023-08-30T03:49:43;98221.19;;;12.82;67.32
79250;BME280;68679;51.030;7.584;2023-08-30T03:52:08;98222.72;;;12.83;67.14
79250;BME280;68679;51.030;7.584;2023-08-30T03:54:34;98220.56;;;12.85;67.23
79250;BME280;68679;51.030;7.584;2023-08-30T03:56:59;98217.00;;;12.81;67.25
79250;BME280;68679;51.030;7.584;2023-08-30T03:59:24;98220.41;;;12.82;67.40
79250;BME280;68679;51.030;7.584;2023-08-30T04:01:52;98205.72;;;12.81;67.28
79250;BME280;68679;51.030;7.584;2023-08-30T04:04:18;98214.38;;;12.81;67.43
79250;BME280;68679;51.030;7.584;2023-08-30T04:06:43;98210.19;;;12.80;67.27
79250;BME280;68679;51.030;7.584;2023-08-30T04:09:08;98207.06;;;12.78;67.41
79250;BME280;68679;51.030;7.584;2023-08-30T04:11:35;98203.66;;;12.78;67.43
79250;BME280;68679;51.030;7.584;2023-08-30T04:14:00;98207.38;;;12.77;67.25
79250;BME280;68679;51.030;7.584;2023-08-30T04:16:25;98208.16;;;12.77;67.31
79250;BME280;68679;51.030;7.584;2023-08-30T04:18:51;98200.91;;;12.74;66.96
79250;BME280;68679;51.030;7.584;2023-08-30T04:21:16;98206.16;;;12.74;67.12
79250;BME280;68679;51.030;7.584;2023-08-30T04:23:41;98214.31;;;12.73;66.96
79250;BME280;68679;51.030;7.584;2023-08-30T04:26:07;98210.63;;;12.74;66.97
79250;BME280;68679;51.030;7.584;2023-08-30T04:28:33;98219.91;;;12.71;66.69
79250;BME280;68679;51.030;7.584;2023-08-30T04:30:58;98208.59;;;12.71;67.07
79250;BME280;68679;51.030;7.584;2023-08-30T04:33:24;98208.91;;;12.69;67.15
79250;BME280;68679;51.030;7.584;2023-08-30T04:35:53;98206.09;;;12.66;67.39
79250;BME280;68679;51.030;7.584;2023-08-30T04:38:19;98206.41;;;12.64;67.02
79250;BME280;68679;51.030;7.584;2023-08-30T04:40:45;98205.66;;;12.64;66.91
79250;BME280;68679;51.030;7.584;2023-08-30T04:43:10;98213.84;;;12.62;67.21
79250;BME280;68679;51.030;7.584;2023-08-30T04:45:36;98205.66;;;12.64;67.01
79250;BME280;68679;51.030;7.584;2023-08-30T04:48:01;98212.44;;;12.65;67.05
79250;BME280;68679;51.030;7.584;2023-08-30T04:50:26;98207.19;;;12.65;67.02
79250;BME280;68679;51.030;7.584;2023-08-30T04:52:52;98213.03;;;12.61;67.26
79250;BME280;68679;51.030;7.584;2023-08-30T04:55:17;98207.31;;;12.59;67.42
79250;BME280;68679;51.030;7.584;2023-08-30T04:57:42;98204.69;;;12.59;67.18
79250;BME280;68679;51.030;7.584;2023-08-30T05:00:11;98198.34;;;12.60;67.34
79250;BME280;68679;51.030;7.584;2023-08-30T05:02:36;98198.34;;;12.60;67.27
79250;BME280;68679;51.030;7.584;2023-08-30T05:05:02;98200.22;;;12.60;67.11
79250;BME280;68679;51.030;7.584;2023-08-30T05:07:27;98193.09;;;12.60;67.44
79250;BME280;68679;51.030;7.584;2023-08-30T05:09:53;98197.88;;;12.58;67.45
79250;BME280;68679;51.030;7.584;2023-08-30T05:12:18;98192.63;;;12.58;67.13
79250;BME280;68679;51.030;7.584;2023-08-30T05:14:44;98197.13;;;12.58;67.44
79250;BME280;68679;51.030;7.584;2023-08-30T05:17:09;98199.44;;;12.59;67.14
79250;BME280;68679;51.030;7.584;2023-08-30T05:19:35;98192.63;;;12.58;67.53
79250;BME280;68679;51.030;7.584;2023-08-30T05:22:00;98185.81;;;12.57;67.60
79250;BME280;68679;51.030;7.584;2023-08-30T05:24:25;98188.47;;;12.57;67.28
79250;BME280;68679;51.030;7.584;2023-08-30T05:26:52;98188.47;;;12.57;67.34
79250;BME280;68679;51.030;7.584;2023-08-30T05:29:17;98186.13;;;12.56;67.42
79250;BME280;68679;51.030;7.584;2023-08-30T05:31:43;98179.31;;;12.55;67.10
79250;BME280;68679;51.030;7.584;2023-08-30T05:34:09;98177.75;;;12.54;67.51
79250;BME280;68679;51.030;7.584;2023-08-30T05:36:35;98171.25;;;12.51;67.58
79250;BME280;68679;51.030;7.584;2023-08-30T05:39:00;98167.53;;;12.52;67.41
79250;BME280;68679;51.030;7.584;2023-08-30T05:41:25;98175.75;;;12.51;67.14
79250;BME280;68679;51.030;7.584;2023-08-30T05:43:51;98167.38;;;12.49;67.44
79250;BME280;68679;51.030;7.584;2023-08-30T05:46:16;98165.81;;;12.48;67.25
79250;BME280;68679;51.030;7.584;2023-08-30T05:48:42;98163.97;;;12.48;67.51
79250;BME280;68679;51.030;7.584;2023-08-30T05:51:07;98162.13;;;12.49;67.13
79250;BME280;68679;51.030;7.584;2023-08-30T05:53:32;98161.34;;;12.48;67.50
79250;BME280;68679;51.030;7.584;2023-08-30T05:55:58;98156.09;;;12.48;67.19
79250;BME280;68679;51.030;7.584;2023-08-30T05:58:23;98157.16;;;12.47;67.47
79250;BME280;68679;51.030;7.584;2023-08-30T06:00:48;98166.59;;;12.48;67.50
79250;BME280;68679;51.030;7.584;2023-08-30T06:03:16;98166.31;;;12.50;67.53
79250;BME280;68679;51.030;7.584;2023-08-30T06:05:42;98164.75;;;12.49;67.64
79250;BME280;68679;51.030;7.584;2023-08-30T06:08:08;98159.19;;;12.50;67.55
79250;BME280;68679;51.030;7.584;2023-08-30T06:10:33;98159.19;;;12.50;67.54
79250;BME280;68679;51.030;7.584;2023-08-30T06:12:59;98158.44;;;12.50;67.51
79250;BME280;68679;51.030;7.584;2023-08-30T06:15:24;98164.16;;;12.52;67.84
79250;BME280;68679;51.030;7.584;2023-08-30T06:17:49;98159.97;;;12.51;67.82
79250;BME280;68679;51.030;7.584;2023-08-30T06:20:15;98159.34;;;12.54;67.72
79250;BME280;68679;51.030;7.584;2023-08-30T06:22:40;98159.34;;;12.54;67.74
79250;BME280;68679;51.030;7.584;2023-08-30T06:25:08;98151.16;;;12.55;67.91
79250;BME280;68679;51.030;7.584;2023-08-30T06:27:33;98148.53;;;12.55;67.84
79250;BME280;68679;51.030;7.584;2023-08-30T06:29:59;98147.16;;;12.58;67.53
79250;BME280;68679;51.030;7.584;2023-08-30T06:32:25;98153.19;;;12.58;67.63
79250;BME280;68679;51.030;7.584;2023-08-30T06:34:50;98144.97;;;12.60;67.94
79250;BME280;68679;51.030;7.584;2023-08-30T06:37:15;98147.28;;;12.61;67.86
79250;BME280;68679;51.030;7.584;2023-08-30T06:39:42;98135.09;;;12.66;67.67
79250;BME280;68679;51.030;7.584;2023-08-30T06:42:07;98132.94;;;12.68;67.94
79250;BME280;68679;51.030;7.584;2023-08-30T06:44:32;98134.50;;;12.69;68.17
79250;BME280;68679;51.030;7.584;2023-08-30T06:46:58;98132.63;;;12.69;67.98
79250;BME280;68679;51.030;7.584;2023-08-30T06:49:24;98132.31;;;12.71;68.35
79250;BME280;68679;51.030;7.584;2023-08-30T06:51:49;98138.81;;;12.73;67.88
79250;BME280;68679;51.030;7.584;2023-08-30T06:54:14;98134.03;;;12.75;68.19
79250;BME280;68679;51.030;7.584;2023-08-30T06:56:39;98125.84;;;12.77;67.89
79250;BME280;68679;51.030;7.584;2023-08-30T06:59:05;98118.41;;;12.79;68.22
79250;BME280;68679;51.030;7.584;2023-08-30T07:01:30;98114.41;;;12.81;68.10
79250;BME280;68679;51.030;7.584;2023-08-30T07:03:55;98113.78;;;12.84;68.22
79250;BME280;68679;51.030;7.584;2023-08-30T07:06:21;98107.13;;;12.87;68.25
79250;BME280;68679;51.030;7.584;2023-08-30T07:08:46;98103.88;;;12.90;67.92
79250;BME280;68679;51.030;7.584;2023-08-30T07:11:12;98106.19;;;12.92;68.37
79250;BME280;68679;51.030;7.584;2023-08-30T07:13:37;98096.91;;;12.94;67.77
79250;BME280;68679;51.030;7.584;2023-08-30T07:16:02;98100.00;;;12.96;68.37
79250;BME280;68679;51.030;7.584;2023-08-30T07:18:28;98098.16;;;12.97;68.66
79250;BME280;68679;51.030;7.584;2023-08-30T07:20:54;98088.88;;;12.99;69.06
79250;BME280;68679;51.030;7.584;2023-08-30T07:23:19;98087.47;;;13.02;68.19
79250;BME280;68679;51.030;7.584;2023-08-30T07:25:44;98086.88;;;13.05;68.30
79250;BME280;68679;51.030;7.584;2023-08-30T07:28:10;98091.81;;;13.06;68.35
79250;BME280;68679;51.030;7.584;2023-08-30T07:30:35;98089.63;;;13.08;68.46
79250;BME280;68679;51.030;7.584;2023-08-30T07:33:01;98087.94;;;13.12;68.68
79250;BME280;68679;51.030;7.584;2023-08-30T07:35:26;98091.81;;;13.15;68.25
79250;BME280;68679;51.030;7.584;2023-08-30T07:37:51;98094.59;;;13.19;68.45
79250;BME280;68679;51.030;7.584;2023-08-30T07:40:17;98092.13;;;13.22;68.49
79250;BME280;68679;51.030;7.584;2023-08-30T07:42:42;98091.53;;;13.25;68.78
79250;BME280;68679;51.030;7.584;2023-08-30T07:45:08;98095.38;;;13.28;68.38
79250;BME280;68679;51.030;7.584;2023-08-30T07:47:34;98093.22;;;13.30;68.45
79250;BME280;68679;51.030;7.584;2023-08-30T07:49:59;98086.25;;;13.34;68.98
79250;BME280;68679;51.030;7.584;2023-08-30T07:52:24;98092.75;;;13.36;69.33
79250;BME280;68679;51.030;7.584;2023-08-30T07:54:50;98095.22;;;13.41;68.30
79250;BME280;68679;51.030;7.584;2023-08-30T07:57:15;98096.91;;;13.46;68.10
79250;BME280;68679;51.030;7.584;2023-08-30T07:59:40;98097.38;;;13.48;67.57
79250;BME280;68679;51.030;7.584;2023-08-30T08:02:06;98096.44;;;13.53;67.89
79250;BME280;68679;51.030;7.584;2023-08-30T08:04:33;98101.09;;;13.56;67.89
79250;BME280;68679;51.030;7.584;2023-08-30T08:06:59;98103.88;;;13.59;68.38
79250;BME280;68679;51.030;7.584;2023-08-30T08:09:24;98100.59;;;13.62;67.64
79250;BME280;68679;51.030;7.584;2023-08-30T08:11:49;98101.81;;;13.65;68.12
79250;BME280;68679;51.030;7.584;2023-08-30T08:14:15;98102.00;;;13.68;67.63
79250;BME280;68679;51.030;7.584;2023-08-30T08:16:40;98106.31;;;13.73;67.88
79250;BME280;68679;51.030;7.584;2023-08-30T08:19:06;98094.06;;;13.77;67.05
79250;BME280;68679;51.030;7.584;2023-08-30T08:21:33;98095.28;;;13.80;67.77
79250;BME280;68679;51.030;7.584;2023-08-30T08:23:58;98093.59;;;13.84;70.46
79250;BME280;68679;51.030;7.584;2023-08-30T08:26:23;98084.28;;;13.86;67.57
79250;BME280;68679;51.030;7.584;2023-08-30T08:28:49;98089.69;;;13.90;67.10
79250;BME280;68679;51.030;7.584;2023-08-30T08:31:14;98088.72;;;13.94;67.47
79250;BME280;68679;51.030;7.584;2023-08-30T08:33:40;98075.69;;;13.98;67.12
79250;BME280;68679;51.030;7.584;2023-08-30T08:36:05;98084.22;;;14.04;66.81
79250;BME280;68679;51.030;7.584;2023-08-30T08:38:30;98089.00;;;14.10;66.88
79250;BME280;68679;51.030;7.584;2023-08-30T08:41:02;98080.91;;;14.15;66.62
79250;BME280;68679;51.030;7.584;2023-08-30T08:43:29;98080.41;;;14.22;66.04
79250;BME280;68679;51.030;7.584;2023-08-30T08:45:57;98067.03;;;14.27;65.67
79250;BME280;68679;51.030;7.584;2023-08-30T08:48:25;98074.78;;;14.32;65.43
79250;BME280;68679;51.030;7.584;2023-08-30T08:50:53;98069.00;;;14.39;64.80
79250;BME280;68679;51.030;7.584;2023-08-30T08:53:19;98064.31;;;14.44;65.39
79250;BME280;68679;51.030;7.584;2023-08-30T08:55:45;98079.19;;;14.49;64.41
79250;BME280;68679;51.030;7.584;2023-08-30T08:58:11;98070.47;;;14.57;65.06
79250;BME280;68679;51.030;7.584;2023-08-30T09:00:36;98077.88;;;14.64;64.74
79250;BME280;68679;51.030;7.584;2023-08-30T09:03:03;98073.19;;;14.69;63.59
79250;BME280;68679;51.030;7.584;2023-08-30T09:05:30;98070.34;;;14.74;63.92
79250;BME280;68679;51.030;7.584;2023-08-30T09:07:56;98077.44;;;14.83;63.58
79250;BME280;68679;51.030;7.584;2023-08-30T09:10:21;98071.97;;;14.88;63.97
79250;BME280;68679;51.030;7.584;2023-08-30T09:12:47;98069.91;;;14.93;63.69
79250;BME280;68679;51.030;7.584;2023-08-30T09:15:13;98061.47;;;15.00;63.48
79250;BME280;68679;51.030;7.584;2023-08-30T09:17:39;98070.72;;;15.06;63.06
79250;BME280;68679;51.030;7.584;2023-08-30T09:20:13;98072.06;;;15.12;63.29
79250;BME280;68679;51.030;7.584;2023-08-30T09:22:39;98074.97;;;15.19;63.11
79250;BME280;68679;51.030;7.584;2023-08-30T09:25:07;98064.97;;;15.25;62.61
79250;BME280;68679;51.030;7.584;2023-08-30T09:27:34;98070.06;;;15.30;63.16
79250;BME280;68679;51.030;7.584;2023-08-30T09:30:00;98072.16;;;15.37;62.24
79250;BME280;68679;51.030;7.584;2023-08-30T09:32:26;98062.94;;;15.43;62.58
79250;BME280;68679;51.030;7.584;2023-08-30T09:34:51;98060.88;;;15.48;62.04
79250;BME280;68679;51.030;7.584;2023-08-30T09:37:22;98051.63;;;15.54;61.75
79250;BME280;68679;51.030;7.584;2023-08-30T09:39:49;98057.34;;;15.56;61.99
79250;BME280;68679;51.030;7.584;2023-08-30T09:42:16;98061.34;;;15.63;62.24
79250;BME280;68679;51.030;7.584;2023-08-30T09:44:42;98047.03;;;15.64;61.50
79250;BME280;68679;51.030;7.584;2023-08-30T09:47:08;98038.91;;;15.69;61.65
79250;BME280;68679;51.030;7.584;2023-08-30T09:49:47;98039.13;;;15.76;62.13
79250;BME280;68679;51.030;7.584;2023-08-30T09:52:15;98036.28;;;15.81;62.28
79250;BME280;68679;51.030;7.584;2023-08-30T09:54:41;98030.78;;;15.86;61.42
79250;BME280;68679;51.030;7.584;2023-08-30T09:57:09;98026.03;;;15.92;61.37
79250;BME280;68679;51.030;7.584;2023-08-30T09:59:35;98028.47;;;15.97;61.42
79250;BME280;68679;51.030;7.584;2023-08-30T10:02:01;98028.25;;;16.02;61.53
79250;BME280;68679;51.030;7.584;2023-08-30T10:04:27;98025.81;;;16.09;61.74
79250;BME280;68679;51.030;7.584;2023-08-30T10:06:55;98028.25;;;16.14;61.74
79250;BME280;68679;51.030;7.584;2023-08-30T10:09:23;98027.22;;;16.19;60.92
79250;BME280;68679;51.030;7.584;2023-08-30T10:11:49;98022.50;;;16.24;61.55
79250;BME280;68679;51.030;7.584;2023-08-30T10:14:16;98012.78;;;16.28;61.47
79250;BME280;68679;51.030;7.584;2023-08-30T10:16:46;98012.56;;;16.33;61.46
79250;BME280;68679;51.030;7.584;2023-08-30T10:19:16;98009.25;;;16.36;61.47
79250;BME280;68679;51.030;7.584;2023-08-30T10:21:43;98004.06;;;16.40;61.67
79250;BME280;68679;51.030;7.584;2023-08-30T10:24:11;98011.78;;;16.45;61.52
79250;BME280;68679;51.030;7.584;2023-08-30T10:26:39;97997.44;;;16.46;61.23
79250;BME280;68679;51.030;7.584;2023-08-30T10:29:06;97994.88;;;16.50;61.00
79250;BME280;68679;51.030;7.584;2023-08-30T10:31:37;97990.47;;;16.54;61.78
79250;BME280;68679;51.030;7.584;2023-08-30T10:34:13;97995.88;;;16.57;61.35
79250;BME280;68679;51.030;7.584;2023-08-30T10:36:39;97996.41;;;16.63;61.92
79250;BME280;68679;51.030;7.584;2023-08-30T10:39:11;97985.47;;;16.65;61.28
79250;BME280;68679;51.030;7.584;2023-08-30T10:41:36;97984.47;;;16.69;61.19
79250;BME280;68679;51.030;7.584;2023-08-30T10:44:02;97985.69;;;16.72;61.32
79250;BME280;68679;51.030;7.584;2023-08-30T10:46:31;97988.44;;;16.75;60.91
79250;BME280;68679;51.030;7.584;2023-08-30T10:49:08;97994.94;;;16.78;60.73
79250;BME280;68679;51.030;7.584;2023-08-30T10:51:38;98005.63;;;16.81;61.31
79250;BME280;68679;51.030;7.584;2023-08-30T10:54:14;98004.19;;;16.84;61.38
79250;BME280;68679;51.030;7.584;2023-08-30T10:56:55;97995.13;;;16.85;61.21
79250;BME280;68679;51.030;7.584;2023-08-30T10:59:23;98003.06;;;16.85;60.65
79250;BME280;68679;51.030;7.584;2023-08-30T11:01:49;97990.59;;;16.85;60.73
79250;BME280;68679;51.030;7.584;2023-08-30T11:04:16;97992.94;;;16.87;60.87
79250;BME280;68679;51.030;7.584;2023-08-30T11:06:43;97982.66;;;16.85;60.70
79250;BME280;68679;51.030;7.584;2023-08-30T11:09:09;97997.13;;;16.88;60.51
79250;BME280;68679;51.030;7.584;2023-08-30T11:11:39;97996.00;;;16.89;60.99
79250;BME280;68679;51.030;7.584;2023-08-30T11:14:06;97991.47;;;16.89;60.93
79250;BME280;68679;51.030;7.584;2023-08-30T11:16:33;97986.19;;;16.89;60.45
79250;BME280;68679;51.030;7.584;2023-08-30T11:19:00;97985.84;;;16.91;60.79
79250;BME280;68679;51.030;7.584;2023-08-30T11:21:26;97991.13;;;16.91;61.12
79250;BME280;68679;51.030;7.584;2023-08-30T11:23:52;97983.94;;;16.92;61.05
79250;BME280;68679;51.030;7.584;2023-08-30T11:26:17;98006.66;;;16.93;60.92
79250;BME280;68679;51.030;7.584;2023-08-30T11:28:42;98009.66;;;16.91;60.97
79250;BME280;68679;51.030;7.584;2023-08-30T11:31:20;98006.59;;;16.89;60.77
79250;BME280;68679;51.030;7.584;2023-08-30T11:33:51;98003.94;;;16.89;60.64
79250;BME280;68679;51.030;7.584;2023-08-30T11:36:17;98004.72;;;16.89;60.95
79250;BME280;68679;51.030;7.584;2023-08-30T11:38:43;98001.63;;;16.87;61.17
79250;BME280;68679;51.030;7.584;2023-08-30T11:41:08;97994.78;;;16.86;60.95
79250;BME280;68679;51.030;7.584;2023-08-30T11:43:34;97994.00;;;16.86;61.58
79250;BME280;68679;51.030;7.584;2023-08-30T11:46:00;97993.69;;;16.87;61.31
79250;BME280;68679;51.030;7.584;2023-08-30T11:48:28;97990.28;;;16.87;61.36
79250;BME280;68679;51.030;7.584;2023-08-30T11:50:54;97997.44;;;16.86;61.29
79250;BME280;68679;51.030;7.584;2023-08-30T11:53:19;97992.94;;;16.87;61.34
79250;BME280;68679;51.030;7.584;2023-08-30T11:55:45;97994.34;;;16.84;61.55
79250;BME280;68679;51.030;7.584;2023-08-30T11:58:10;97987.53;;;16.83;61.53
79250;BME280;68679;51.030;7.584;2023-08-30T12:00:36;97979.94;;;16.82;61.54
79250;BME280;68679;51.030;7.584;2023-08-30T12:03:05;97978.38;;;16.81;62.00
79250;BME280;68679;51.030;7.584;2023-08-30T12:05:30;97970.00;;;16.79;61.72
79250;BME280;68679;51.030;7.584;2023-08-30T12:07:59;97980.59;;;16.79;61.85
79250;BME280;68679;51.030;7.584;2023-08-30T12:10:25;97980.94;;;16.77;62.03
79250;BME280;68679;51.030;7.584;2023-08-30T12:12:51;97982.03;;;16.76;62.23
79250;BME280;68679;51.030;7.584;2023-08-30T12:15:16;97984.22;;;16.74;62.26
79250;BME280;68679;51.030;7.584;2023-08-30T12:17:42;97980.06;;;16.73;61.94
79250;BME280;68679;51.030;7.584;2023-08-30T12:20:15;97981.94;;;16.73;62.55
79250;BME280;68679;51.030;7.584;2023-08-30T12:22:41;97993.63;;;16.72;62.25
79250;BME280;68679;51.030;7.584;2023-08-30T12:25:20;97991.34;;;16.70;62.74
79250;BME280;68679;51.030;7.584;2023-08-30T12:27:46;97986.03;;;16.70;62.55
79250;BME280;68679;51.030;7.584;2023-08-30T12:30:13;97984.16;;;16.71;62.81
79250;BME280;68679;51.030;7.584;2023-08-30T12:32:38;97991.34;;;16.70;62.63
79250;BME280;68679;51.030;7.584;2023-08-30T12:35:04;97992.41;;;16.69;62.77
79250;BME280;68679;51.030;7.584;2023-08-30T12:37:30;97996.13;;;16.68;62.59
79250;BME280;68679;51.030;7.584;2023-08-30T12:39:55;97996.94;;;16.69;62.85
79250;BME280;68679;51.030;7.584;2023-08-30T12:42:20;98004.09;;;16.68;63.10
79250;BME280;68679;51.030;7.584;2023-08-30T12:44:45;98002.88;;;16.66;63.14
79250;BME280;68679;51.030;7.584;2023-08-30T12:47:11;97993.75;;;16.63;63.08
79250;BME280;68679;51.030;7.584;2023-08-30T12:49:39;98003.88;;;16.61;63.25
79250;BME280;68679;51.030;7.584;2023-08-30T12:52:04;98003.47;;;16.59;62.72
79250;BME280;68679;51.030;7.584;2023-08-30T12:54:30;97997.75;;;16.57;64.07
79250;BME280;68679;51.030;7.584;2023-08-30T12:56:55;97990.88;;;16.56;63.33
79250;BME280;68679;51.030;7.584;2023-08-30T12:59:20;97992.00;;;16.55;63.12